Time;durP1;ratioP1;P1;durP2;ratioP2;P2;SDS_P1;SDS_P2;PMS_P1;PMS_P2;Temp;Humidity;BMP_temperature;BMP_pressure;BME280_temperature;BME280_humidity;BME280_pressure;Samples;Min_cycle;Max_cycle;Signal;HPM_P1;HPM_P2
2022/10/22 08:01:32;;;;;;;12.52;4.00;;;;;;;13.89;100.00;100960.94;5313102;27;20559;-73
2022/10/22 08:04:03;;;;;;;8.55;3.13;;;;;;;13.94;100.00;100970.34;5321750;28;20088;-73
2022/10/22 08:06:35;;;;;;;10.50;4.32;;;;;;;13.96;100.00;100977.28;5322450;28;20045;-71
2022/10/22 08:09:06;;;;;;;11.70;3.08;;;;;;;14.01;100.00;100985.53;5321985;28;20053;-72
2022/10/22 08:11:38;;;;;;;10.00;2.80;;;;;;;14.05;100.00;100980.16;5321410;28;20493;-69
2022/10/22 08:14:09;;;;;;;12.20;3.83;;;;;;;14.07;100.00;100984.28;5322326;28;20027;-70
2022/10/22 08:16:40;;;;;;;9.88;2.95;;;;;;;14.16;100.00;100981.59;5321568;28;20036;-70
2022/10/22 08:19:12;;;;;;;5.65;2.50;;;;;;;14.22;100.00;100985.13;5321550;28;20049;-70
2022/10/22 08:21:44;;;;;;;6.22;2.90;;;;;;;14.29;100.00;100985.50;5321989;28;20031;-71
2022/10/22 08:24:15;;;;;;;8.45;2.97;;;;;;;14.34;100.00;100991.84;5320976;28;20032;-70
2022/10/22 08:26:47;;;;;;;7.50;3.03;;;;;;;14.42;100.00;101001.44;5318530;28;20028;-71
2022/10/22 08:29:20;;;;;;;8.02;2.80;;;;;;;14.47;100.00;101000.47;5319724;28;20024;-70
2022/10/22 08:31:52;;;;;;;9.65;3.70;;;;;;;14.55;100.00;101002.59;5321126;28;20479;-71
2022/10/22 08:34:23;;;;;;;9.27;3.15;;;;;;;14.62;100.00;101011.34;5320921;28;20032;-71
2022/10/22 08:36:57;;;;;;;6.78;2.50;;;;;;;14.68;100.00;101004.50;5320833;28;20020;-71
2022/10/22 08:39:29;;;;;;;6.45;2.08;;;;;;;14.74;100.00;101013.59;5320171;28;20032;-71
2022/10/22 08:42:10;;;;;;;7.72;2.50;;;;;;;14.81;100.00;101022.38;5321885;28;20538;-71
2022/10/22 08:44:56;;;;;;;6.90;2.50;;;;;;;14.91;100.00;101029.69;5305410;28;20428;-70
2022/10/22 08:47:40;;;;;;;;;;;;;;;14.97;100.00;101017.25;5321710;28;20026;-69
2022/10/22 08:50:18;;;;;;;9.18;2.95;;;;;;;14.98;100.00;101025.31;5321386;28;20342;-69
2022/10/22 08:52:56;;;;;;;7.57;3.67;;;;;;;15.03;100.00;101038.31;5320619;28;20020;-69
2022/10/22 08:55:29;;;;;;;9.35;3.90;;;;;;;15.08;100.00;101035.41;5321204;28;20039;-69
2022/10/22 08:58:14;;;;;;;7.72;2.28;;;;;;;15.10;100.00;101049.88;5321397;28;20023;-69
2022/10/22 09:00:58;;;;;;;6.73;2.30;;;;;;;15.11;100.00;101051.56;5318133;28;20099;-71
2022/10/22 09:03:44;;;;;;;10.73;2.78;;;;;;;15.14;100.00;101050.94;5318802;28;20297;-69
2022/10/22 09:06:23;;;;;;;7.72;2.58;;;;;;;15.17;100.00;101055.06;5307342;28;20035;-71
2022/10/22 09:08:57;;;;;;;6.65;2.55;;;;;;;15.19;100.00;101056.38;5300918;28;20021;-70
2022/10/22 09:11:38;;;;;;;7.25;3.15;;;;;;;15.22;100.00;101055.75;5314741;28;20070;-71
2022/10/22 09:14:16;;;;;;;7.65;2.47;;;;;;;15.23;100.00;101067.75;5306017;28;20119;-70
2022/10/22 09:17:12;;;;;;;9.20;2.80;;;;;;;15.25;100.00;101067.44;5306752;28;20385;-72
2022/10/22 09:19:43;;;;;;;;;;;;;;;15.28;100.00;101064.00;5306091;28;20481;-70
2022/10/22 09:22:35;;;;;;;5.30;2.03;;;;;;;15.24;100.00;101072.22;5306272;28;19912;-70
2022/10/22 09:25:25;;;;;;;7.40;2.58;;;;;;;15.26;100.00;101081.06;5306652;28;20671;-70
2022/10/22 09:27:57;;;;;;;7.25;2.25;;;;;;;15.26;99.66;101083.06;5305596;28;20031;-69
2022/10/22 09:30:33;;;;;;;6.18;2.05;;;;;;;15.29;99.51;101085.22;5306187;28;20024;-69
2022/10/22 09:33:16;;;;;;;12.98;6.75;;;;;;;15.29;100.00;101082.41;5306468;28;20019;-69
2022/10/22 09:35:52;;;;;;;7.45;2.38;;;;;;;15.29;100.00;101091.66;5305544;28;20035;-69
2022/10/22 09:38:27;;;;;;;;;;;;;;;15.36;100.00;101094.81;5306492;28;20031;-69
2022/10/22 09:41:02;;;;;;;5.93;2.47;;;;;;;15.31;99.52;101099.69;5305342;28;19916;-71
2022/10/22 09:43:34;;;;;;;9.45;2.45;;;;;;;15.32;98.93;101101.38;5305820;28;20324;-70
2022/10/22 09:46:14;;;;;;;9.60;3.08;;;;;;;15.33;99.21;101106.63;5306219;28;20032;-68
2022/10/22 09:49:02;;;;;;;7.75;2.42;;;;;;;15.37;99.06;101106.84;5305635;28;20034;-70
2022/10/22 09:51:48;;;;;;;5.47;2.15;;;;;;;15.39;99.83;101112.91;5305684;28;20031;-70
2022/10/22 09:54:33;;;;;;;9.07;3.33;;;;;;;15.42;99.38;101112.31;5306133;28;20038;-70
2022/10/22 09:57:23;;;;;;;6.05;2.50;;;;;;;15.45;98.83;101114.47;5305040;28;20078;-70
2022/10/22 09:59:56;;;;;;;9.48;2.70;;;;;;;15.46;98.81;101124.50;5305461;28;20040;-70
2022/10/22 10:02:28;;;;;;;14.40;6.13;;;;;;;15.50;99.12;101131.09;5305268;28;20103;-70
2022/10/22 10:05:01;;;;;;;10.25;5.38;;;;;;;15.51;99.07;101137.53;5305218;28;20099;-71
2022/10/22 10:07:34;;;;;;;10.52;3.88;;;;;;;15.52;99.27;101136.38;5305757;28;20058;-70
2022/10/22 10:10:35;;;;;;;7.88;2.47;;;;;;;15.57;99.59;101147.44;5304788;28;20024;-71
2022/10/22 10:13:29;;;;;;;8.25;3.80;;;;;;;15.57;99.08;101144.63;5305596;28;20097;-71
2022/10/22 10:16:36;;;;;;;10.57;3.33;;;;;;;15.58;99.43;101154.69;5304638;28;20031;-70
2022/10/22 10:19:25;;;;;;;10.82;3.50;;;;;;;15.58;99.29;101154.69;5305257;28;20028;-70
2022/10/22 10:22:14;;;;;;;11.45;3.50;;;;;;;15.57;99.50;101159.47;5305125;28;20028;-72
2022/10/22 10:25:07;;;;;;;7.95;3.35;;;;;;;15.63;99.07;101162.94;5304012;28;20024;-71
2022/10/22 10:27:43;;;;;;;8.63;3.50;;;;;;;15.66;98.80;101160.34;5305242;28;20068;-71
2022/10/22 10:30:18;;;;;;;9.13;2.78;;;;;;;15.68;98.30;101159.22;5305060;28;20706;-69
2022/10/22 10:33:04;;;;;;;16.80;10.40;;;;;;;15.70;98.39;101165.31;5305152;28;20028;-73
2022/10/22 10:35:51;;;;;;;16.58;12.10;;;;;;;15.77;98.95;101163.78;5305265;28;20213;-73
2022/10/22 10:38:47;;;;;;;7.82;3.17;;;;;;;15.78;98.48;101157.03;5304505;28;20036;-72
2022/10/22 10:41:45;;;;;;;12.15;2.92;;;;;;;15.83;98.00;101168.09;5304977;28;20096;-73
2022/10/22 10:44:28;;;;;;;7.25;2.80;;;;;;;15.84;97.33;101168.91;5297030;28;20024;-73
2022/10/22 10:47:23;;;;;;;6.00;3.67;;;;;;;15.91;96.99;101166.50;5304513;28;20032;-73
2022/10/22 10:50:23;;;;;;;7.13;2.67;;;;;;;16.01;96.99;101174.63;5304878;28;20036;-72
2022/10/22 10:53:13;;;;;;;7.13;3.10;;;;;;;16.05;95.94;101170.06;5304122;28;20020;-72
2022/10/22 10:55:58;;;;;;;6.70;3.10;;;;;;;16.08;95.22;101175.00;5283805;28;20017;-70
2022/10/22 10:58:42;;;;;;;10.52;2.90;;;;;;;16.13;94.44;101170.41;5283341;28;20041;-70
2022/10/22 11:01:35;;;;;;;11.38;3.13;;;;;;;16.13;93.64;101171.25;5293233;28;20095;-69
2022/10/22 11:04:45;;;;;;;9.25;3.05;;;;;;;16.17;93.53;101171.44;5304754;28;20475;-71
2022/10/22 11:07:26;;;;;;;11.23;5.00;;;;;;;16.24;92.85;101160.63;5303515;28;20039;-69
2022/10/22 11:10:08;;;;;;;9.00;3.30;;;;;;;16.26;92.85;101164.75;5304369;28;20481;-71
2022/10/22 11:12:47;;;;;;;9.48;3.45;;;;;;;16.32;92.49;101162.63;5303672;28;20110;-71
2022/10/22 11:15:28;;;;;;;8.18;2.88;;;;;;;16.42;92.16;101167.13;5304343;28;20077;-72
2022/10/22 11:18:11;;;;;;;8.27;3.53;;;;;;;16.48;91.34;101166.66;5304270;28;20106;-72
2022/10/22 11:21:06;;;;;;;15.90;3.28;;;;;;;16.51;89.99;101171.63;5301271;28;20036;-72
2022/10/22 11:23:47;;;;;;;8.18;2.85;;;;;;;16.54;88.91;101175.78;5283457;28;20036;-73
2022/10/22 11:26:50;;;;;;;6.68;2.70;;;;;;;16.58;90.47;101170.34;5293178;28;20028;-73
2022/10/22 11:29:25;;;;;;;6.53;2.83;;;;;;;16.60;89.32;101173.66;5304066;28;20058;-72
2022/10/22 11:31:58;;;;;;;7.18;2.92;;;;;;;16.71;89.42;101163.78;5304171;28;20425;-73
2022/10/22 11:34:44;;;;;;;9.05;3.22;;;;;;;16.83;89.31;101161.25;5302821;28;20391;-70
2022/10/22 11:37:16;;;;;;;6.90;2.90;;;;;;;16.90;87.25;101160.78;5303806;28;20024;-70
2022/10/22 11:39:54;;;;;;;9.75;3.15;;;;;;;17.01;87.03;101147.28;5303808;28;20021;-70
2022/10/22 11:42:38;;;;;;;7.43;2.92;;;;;;;17.02;86.58;101151.72;5301948;28;20031;-70
2022/10/22 11:45:13;;;;;;;12.10;4.43;;;;;;;16.93;86.77;101155.34;5303648;28;20016;-70
2022/10/22 11:48:07;;;;;;;14.10;3.85;;;;;;;16.89;87.18;101159.94;5302701;28;20020;-71
2022/10/22 11:50:46;;;;;;;11.65;4.90;;;;;;;16.81;86.80;101155.13;5303363;28;20039;-70
2022/10/22 11:53:37;;;;;;;9.43;2.92;;;;;;;16.79;87.56;101151.81;5303669;28;20078;-71
2022/10/22 11:56:09;;;;;;;7.82;3.05;;;;;;;16.74;87.39;101158.41;5302791;28;20054;-70
2022/10/22 11:58:47;;;;;;;10.20;3.47;;;;;;;16.78;87.36;101153.00;5304009;28;20059;-69
2022/10/22 12:01:25;;;;;;;8.57;3.00;;;;;;;16.84;87.44;101148.88;5303293;28;20186;-70
2022/10/22 12:03:56;;;;;;;11.00;3.30;;;;;;;16.84;86.65;101160.09;5303444;28;20028;-70
2022/10/22 12:06:28;;;;;;;10.90;3.10;;;;;;;16.84;86.20;101151.69;5303802;28;20483;-71
2022/10/22 12:09:03;;;;;;;10.98;5.13;;;;;;;16.88;86.87;101157.47;5300356;28;20024;-72
2022/10/22 12:12:12;;;;;;;9.00;4.70;;;;;;;16.94;87.42;101156.16;5282710;28;20059;-73
2022/10/22 12:14:51;;;;;;;6.50;3.65;;;;;;;16.93;86.82;101158.16;5290945;28;20024;-72
2022/10/22 12:17:23;;;;;;;9.82;4.00;;;;;;;16.95;85.89;101169.84;5302655;28;20031;-72
2022/10/22 12:20:06;;;;;;;15.32;4.72;;;;;;;16.98;84.10;101170.38;5296118;28;20033;-73
2022/10/22 12:22:37;;;;;;;10.15;3.67;;;;;;;16.99;83.10;101172.81;5282402;28;20029;-73
2022/10/22 12:25:21;;;;;;;14.63;6.45;;;;;;;17.04;84.21;101180.25;5283631;28;20027;-72
2022/10/22 12:27:56;;;;;;;14.23;5.35;;;;;;;17.05;83.70;101168.75;5303605;28;20442;-71
2022/10/22 12:30:33;;;;;;;9.15;3.58;;;;;;;17.07;82.73;101182.41;5303225;28;20027;-71
2022/10/22 12:33:18;;;;;;;16.88;4.30;;;;;;;17.07;83.69;101174.00;5303579;28;20028;-73
2022/10/22 12:35:52;;;;;;;7.65;3.08;;;;;;;17.11;84.20;101177.81;5303556;28;20391;-73
2022/10/22 12:38:26;;;;;;;10.43;3.30;;;;;;;17.08;83.74;101178.47;5302640;28;20467;-71
2022/10/22 12:40:58;;;;;;;13.27;5.10;;;;;;;17.10;84.21;101171.38;5303395;28;20059;-73
2022/10/22 12:43:30;;;;;;;13.30;4.13;;;;;;;17.16;84.23;101175.69;5303272;28;20075;-73
2022/10/22 12:46:01;;;;;;;8.80;5.07;;;;;;;17.33;83.20;101172.09;5302800;28;20032;-73
2022/10/22 12:48:38;;;;;;;6.88;3.05;;;;;;;17.52;82.33;101171.78;5307489;28;20032;-72
2022/10/22 12:51:19;;;;;;;7.60;2.53;;;;;;;17.59;81.89;101176.91;5306732;28;20050;-73
2022/10/22 12:53:56;;;;;;;7.85;2.58;;;;;;;17.66;80.32;101167.97;5299846;28;20031;-73
2022/10/22 12:56:31;;;;;;;7.55;2.38;;;;;;;17.78;79.76;101171.75;5286221;28;20028;-73
2022/10/22 12:59:12;;;;;;;;;;;;;;;17.99;79.41;101162.69;5286526;28;20407;-72
2022/10/22 13:01:49;;;;;;;6.22;2.30;;;;;;;17.94;79.70;101171.28;5286100;28;19919;-71
2022/10/22 13:04:35;;;;;;;9.35;3.75;;;;;;;18.02;79.52;101162.88;5285926;28;20074;-72
2022/10/22 13:07:17;;;;;;;8.00;3.28;;;;;;;17.96;78.66;101158.56;5284856;28;20025;-72
2022/10/22 13:09:54;;;;;;;7.70;2.55;;;;;;;18.00;79.13;101169.97;5306938;28;20074;-71
2022/10/22 13:12:33;;;;;;;10.15;6.13;;;;;;;17.96;78.97;101163.38;5306054;28;20114;-71
2022/10/22 13:15:35;;;;;;;18.60;14.93;;;;;;;17.97;79.67;101165.84;5306576;28;20455;-71
2022/10/22 13:18:20;;;;;;;24.48;19.48;;;;;;;17.92;78.98;101165.19;5306359;28;20027;-71
2022/10/22 13:21:04;;;;;;;5.75;2.80;;;;;;;17.93;78.87;101164.84;5305903;28;20045;-71
2022/10/22 13:23:37;;;;;;;5.75;2.63;;;;;;;17.93;78.98;101164.03;5306532;28;20027;-71
2022/10/22 13:26:16;;;;;;;6.75;2.78;;;;;;;17.88;78.95;101159.41;5305468;28;20042;-72
2022/10/22 13:28:55;;;;;;;5.72;2.78;;;;;;;17.91;78.54;101157.94;5306095;28;20020;-72
2022/10/22 13:31:32;;;;;;;8.98;2.97;;;;;;;17.93;78.86;101158.44;5302835;28;20024;-71
2022/10/22 13:34:24;;;;;;;6.43;2.55;;;;;;;17.96;78.43;101168.97;5293166;28;20398;-70
2022/10/22 13:36:56;;;;;;;10.50;3.90;;;;;;;17.97;76.09;101165.84;5306044;28;20082;-71
2022/10/22 13:39:27;;;;;;;5.90;2.70;;;;;;;17.99;77.26;101169.13;5306211;28;20052;-71
2022/10/22 13:41:58;;;;;;;7.45;2.47;;;;;;;17.96;77.43;101158.56;5305326;28;20039;-71
2022/10/22 13:44:29;;;;;;;6.72;2.10;;;;;;;17.85;77.04;101162.06;5305741;28;20333;-71
2022/10/22 13:47:01;;;;;;;8.48;2.40;;;;;;;17.87;77.53;101160.59;5305592;28;20459;-74
2022/10/22 13:49:32;;;;;;;6.30;3.08;;;;;;;17.87;78.03;101156.94;5305832;28;20020;-74
2022/10/22 13:52:03;;;;;;;5.88;2.53;;;;;;;17.85;77.56;101162.06;5303754;28;20024;-74
2022/10/22 13:54:36;;;;;;;6.55;2.50;;;;;;;17.90;77.86;101153.50;5305125;28;20020;-71
2022/10/22 13:57:09;;;;;;;4.75;2.50;;;;;;;17.94;77.58;101157.25;5305695;28;20459;-73
2022/10/22 13:59:40;;;;;;;6.32;2.53;;;;;;;17.89;75.08;101163.03;5305393;28;20085;-71
2022/10/22 14:02:12;;;;;;;5.95;2.22;;;;;;;17.93;76.32;101166.84;5305674;28;20020;-70
2022/10/22 14:04:45;;;;;;;7.47;2.75;;;;;;;17.94;76.16;101162.88;5305856;28;20029;-72
2022/10/22 14:07:16;;;;;;;6.35;2.30;;;;;;;17.95;76.30;101167.34;5305748;28;20117;-72
2022/10/22 14:09:47;;;;;;;6.93;3.00;;;;;;;17.97;77.18;101165.00;5304686;28;20486;-71
2022/10/22 14:12:19;;;;;;;7.40;2.50;;;;;;;17.96;76.45;101164.19;5305783;28;20581;-70
2022/10/22 14:14:50;;;;;;;8.65;3.55;;;;;;;17.96;76.92;101163.38;5304945;28;20020;-71
2022/10/22 14:17:21;;;;;;;7.30;2.40;;;;;;;18.02;76.79;101168.50;5304340;28;20024;-70
2022/10/22 14:19:53;;;;;;;6.97;2.63;;;;;;;18.06;76.42;101168.63;5297855;28;20036;-69
2022/10/22 14:22:27;;;;;;;6.75;2.53;;;;;;;18.07;75.81;101175.88;5300861;28;20494;-71
2022/10/22 14:24:58;;;;;;;6.35;2.20;;;;;;;18.11;75.23;101176.88;5304969;28;20032;-71
2022/10/22 14:27:29;;;;;;;5.82;3.08;;;;;;;18.11;75.69;101174.06;5305302;28;20600;-70
2022/10/22 14:30:01;;;;;;;3.53;2.03;;;;;;;18.05;75.66;101172.63;5304459;28;20091;-69
2022/10/22 14:32:32;;;;;;;6.32;2.13;;;;;;;18.04;76.23;101171.75;5305101;28;20070;-69
2022/10/22 14:35:04;;;;;;;7.45;2.65;;;;;;;17.95;76.01;101172.97;5305329;28;20016;-69
2022/10/22 14:37:35;;;;;;;7.28;3.78;;;;;;;18.04;75.67;101177.38;5304610;28;20020;-68
2022/10/22 14:40:08;;;;;;;14.05;9.60;;;;;;;18.09;75.36;101172.75;5305076;28;20107;-70
2022/10/22 14:42:41;;;;;;;11.27;2.40;;;;;;;18.16;74.84;101179.50;5304572;28;20031;-71
2022/10/22 14:45:24;;;;;;;30.80;20.92;;;;;;;18.16;76.25;101176.72;5304233;28;20024;-76
2022/10/22 14:47:56;;;;;;;6.15;2.28;;;;;;;18.26;75.23;101183.97;5305075;28;20475;-72
2022/10/22 14:50:27;;;;;;;7.15;2.67;;;;;;;18.23;74.31;101188.25;5303879;28;20051;-70
2022/10/22 14:52:59;;;;;;;3.92;2.13;;;;;;;18.25;73.67;101185.94;5304606;28;20028;-71
2022/10/22 14:55:30;;;;;;;12.95;3.50;;;;;;;18.31;73.76;101191.38;5283974;28;20028;-71
2022/10/22 14:58:01;;;;;;;9.60;2.63;;;;;;;18.22;73.52;101189.41;5283457;28;20070;-71
2022/10/22 15:00:35;;;;;;;4.57;1.63;;;;;;;18.12;73.37;101198.16;5304397;28;20055;-70
2022/10/22 15:03:06;;;;;;;5.68;2.28;;;;;;;18.09;73.80;101196.03;5304785;28;20534;-71
2022/10/22 15:05:42;;;;;;;8.65;2.17;;;;;;;18.06;73.82;101210.72;5303048;28;20110;-70
2022/10/22 15:08:14;;;;;;;6.72;2.10;;;;;;;18.04;74.08;101210.22;5303788;28;20039;-70
2022/10/22 15:10:55;;;;;;;6.95;2.30;;;;;;;17.90;74.90;101212.41;5302953;28;20020;-70
2022/10/22 15:13:28;;;;;;;6.97;2.03;;;;;;;17.95;75.50;101217.84;5303825;28;20379;-70
2022/10/22 15:16:00;;;;;;;7.82;2.33;;;;;;;17.92;75.63;101212.88;5299567;28;20097;-71
2022/10/22 15:18:31;;;;;;;6.10;1.92;;;;;;;17.88;75.88;101212.72;5303639;28;20020;-71
2022/10/22 15:21:15;;;;;;;5.55;2.33;;;;;;;17.88;76.21;101212.72;5303599;28;20450;-71
2022/10/22 15:23:46;;;;;;;7.30;2.00;;;;;;;17.81;76.43;101207.59;5303635;28;20024;-71
2022/10/22 15:26:18;;;;;;;5.72;1.98;;;;;;;17.78;76.87;101213.84;5302721;28;20016;-70
2022/10/22 15:28:49;;;;;;;6.90;1.80;;;;;;;17.74;77.29;101218.47;5303660;28;20470;-71
2022/10/22 15:31:45;;;;;;;6.80;2.47;;;;;;;17.75;77.54;101217.31;5304437;28;20549;-71
2022/10/22 15:34:22;;;;;;;9.32;2.72;;;;;;;17.69;78.26;101215.84;5303118;28;20043;-71
2022/10/22 15:36:55;;;;;;;7.65;2.90;;;;;;;17.67;78.00;101220.13;5304091;28;20055;-72
2022/10/22 15:39:27;;;;;;;10.70;3.45;;;;;;;17.61;78.44;101208.22;5303164;28;20420;-71
2022/10/22 15:41:59;;;;;;;10.23;4.32;;;;;;;17.51;78.87;101208.53;5303439;28;20028;-71
2022/10/22 15:44:31;;;;;;;8.32;2.83;;;;;;;17.50;79.45;101207.72;5288993;28;20489;-71
2022/10/22 15:47:03;;;;;;;5.18;2.63;;;;;;;17.49;79.39;101208.88;5281945;28;20020;-71
2022/10/22 15:49:37;;;;;;;7.43;3.30;;;;;;;17.37;79.92;101209.50;5302310;28;20077;-70
2022/10/22 15:52:08;;;;;;;9.63;3.42;;;;;;;17.41;80.83;101206.06;5304290;28;20016;-71
2022/10/22 15:54:40;;;;;;;8.75;3.08;;;;;;;17.34;81.37;101203.75;5302454;28;20028;-71
2022/10/22 15:57:11;;;;;;;8.07;2.72;;;;;;;17.21;82.08;101204.72;5303904;28;20467;-72
2022/10/22 15:59:42;;;;;;;7.18;2.80;;;;;;;17.20;82.77;101200.25;5301176;28;20077;-71
2022/10/22 16:02:17;;;;;;;8.77;3.33;;;;;;;17.15;83.01;101201.22;5303628;28;20028;-71
2022/10/22 16:04:48;;;;;;;8.43;3.83;;;;;;;17.13;83.09;101192.31;5303791;28;20379;-68
2022/10/22 16:07:20;;;;;;;7.70;2.95;;;;;;;17.13;83.18;101190.34;5303484;28;20024;-73
2022/10/22 16:09:55;;;;;;;11.15;3.60;;;;;;;17.02;83.96;101200.19;5302926;28;20016;-71
2022/10/22 16:12:27;;;;;;;9.43;3.42;;;;;;;16.93;84.74;101208.56;5304069;28;20044;-70
2022/10/22 16:14:58;;;;;;;12.95;6.95;;;;;;;16.99;84.88;101202.81;5303253;28;20051;-71
2022/10/22 16:17:29;;;;;;;11.65;4.85;;;;;;;16.93;85.51;101216.97;5303353;28;20028;-70
2022/10/22 16:20:01;;;;;;;9.00;4.97;;;;;;;16.87;85.50;101211.84;5303687;28;20051;-71
2022/10/22 16:22:32;;;;;;;8.15;3.42;;;;;;;16.81;85.89;101224.34;5305936;28;20035;-71
2022/10/22 16:25:04;;;;;;;8.07;3.40;;;;;;;16.78;86.13;101223.00;5307592;28;20024;-71
2022/10/22 16:27:36;;;;;;;9.57;4.15;;;;;;;16.69;86.64;101222.94;5307747;28;20028;-72
2022/10/22 16:30:08;;;;;;;9.48;4.53;;;;;;;16.70;86.72;101220.97;5307096;28;20460;-71
2022/10/22 16:32:42;;;;;;;10.98;4.35;;;;;;;16.39;87.24;101219.00;5302977;28;20025;-71
2022/10/22 16:35:13;;;;;;;11.90;4.75;;;;;;;16.52;87.28;101222.84;5286511;28;20028;-71
2022/10/22 16:37:45;;;;;;;8.77;4.10;;;;;;;16.43;87.47;101214.38;5285489;28;20031;-71
2022/10/22 16:40:17;;;;;;;7.40;3.80;;;;;;;16.41;88.19;101215.84;5288972;28;20111;-74
2022/10/22 16:42:48;;;;;;;19.42;10.38;;;;;;;16.40;88.22;101220.63;5306640;28;20043;-74
2022/10/22 16:45:19;;;;;;;10.05;4.75;;;;;;;16.41;87.96;101216.69;5307051;28;20158;-75
2022/10/22 16:47:51;;;;;;;7.63;4.25;;;;;;;16.42;88.18;101215.53;5307674;28;20106;-72
2022/10/22 16:50:22;;;;;;;8.45;4.43;;;;;;;16.40;88.51;101208.63;5306756;28;20050;-71
2022/10/22 16:52:53;;;;;;;15.20;6.60;;;;;;;16.34;88.00;101221.91;5307227;28;20589;-71
2022/10/22 16:55:24;;;;;;;8.70;6.80;;;;;;;16.25;88.42;101223.81;5307259;28;20375;-71
2022/10/22 16:57:56;;;;;;;8.00;5.82;;;;;;;16.20;89.07;101233.16;5306272;28;20024;-71
2022/10/22 17:00:28;;;;;;;10.90;6.07;;;;;;;16.23;89.28;101240.09;5306923;28;20048;-71
2022/10/22 17:02:59;;;;;;;10.63;5.93;;;;;;;16.13;89.52;101231.97;5307304;28;20024;-73
2022/10/22 17:05:30;;;;;;;10.43;5.28;;;;;;;16.04;89.86;101238.31;5306198;28;20505;-72
2022/10/22 17:08:02;;;;;;;13.40;5.55;;;;;;;16.10;90.09;101239.03;5307336;28;20024;-72
2022/10/22 17:10:36;;;;;;;7.95;4.43;;;;;;;16.01;90.64;101238.16;5307216;28;20031;-72
2022/10/22 17:13:07;;;;;;;9.52;4.70;;;;;;;16.01;90.54;101236.16;5306239;28;20483;-72
2022/10/22 17:15:39;;;;;;;7.95;3.60;;;;;;;15.99;90.80;101244.03;5307087;28;20031;-72
2022/10/22 17:18:10;;;;;;;7.43;3.00;;;;;;;15.88;90.72;101241.81;5306233;28;20024;-72
2022/10/22 17:20:42;;;;;;;7.30;3.30;;;;;;;15.83;91.29;101239.97;5306407;28;20470;-72
2022/10/22 17:23:19;;;;;;;7.38;3.03;;;;;;;15.78;91.67;101237.28;5301172;28;20024;-72
2022/10/22 17:25:58;;;;;;;7.30;3.20;;;;;;;15.82;92.05;101249.47;5305899;28;20036;-72
2022/10/22 17:28:29;;;;;;;7.38;4.00;;;;;;;15.82;91.71;101249.47;5306822;28;20030;-73
2022/10/22 17:31:22;;;;;;;9.75;4.40;;;;;;;15.77;92.60;101247.66;5306487;28;20020;-72
